| time (UTC) | temp C | wind direction | speed KPH | gust KPH | rain 1hr cm | rain 24hr cm | rain mn cm | humidity % | barometer mb |
| 20260506132205 | 24 | 133 | 1.6 | 8.0 | 0.00 | 0.00 | 0.00 | 89 | 1009.4 |
| 20260506131704 | 24 | 149 | 3.2 | 12.9 | 0.00 | 0.00 | 0.00 | 89 | 1009.3 |
| 20260506131204 | 24 | 194 | 1.6 | 4.8 | 0.00 | 0.00 | 0.00 | 90 | 1009.4 |
| 20260506130204 | 23 | 166 | 1.6 | 3.2 | 0.00 | 0.00 | 0.00 | 91 | 1009.5 |
| 20260506125704 | 23 | 178 | 1.6 | 4.8 | 0.00 | 0.00 | 0.00 | 91 | 1009.4 |
| 20260506124704 | 23 | 184 | 1.6 | 3.2 | 0.00 | 0.00 | 0.00 | 91 | 1009.4 |
| 20260506124204 | 23 | 196 | 1.6 | 4.8 | 0.00 | 0.00 | 0.00 | 91 | 1009.3 |
| 20260506123704 | 23 | 123 | 1.6 | 4.8 | 0.00 | 0.00 | 0.00 | 92 | 1009.2 |
| 20260506123204 | 23 | 163 | 0.0 | 1.6 | 0.00 | 0.00 | 0.00 | 91 | 1009.2 |
| 20260506122204 | 23 | 163 | 0.0 | 1.6 | 0.00 | 0.00 | 0.00 | 91 | 1009.2 |
| 20260506121704 | 23 | 163 | 0.0 | 3.2 | 0.00 | 0.00 | 0.00 | 91 | 1008.9 |
| 20260506121204 | 23 | 317 | 0.0 | 3.2 | 0.00 | 0.00 | 0.00 | 92 | 1008.9 |
| 20260506120704 | 23 | 155 | 1.6 | 3.2 | 0.00 | 0.00 | 0.00 | 91 | 1009.0 |
| 20260506120204 | 23 | 155 | 0.0 | 1.6 | 0.00 | 0.00 | 0.00 | 91 | 1009.0 |
| 20260506115704 | 23 | 155 | 1.6 | 3.2 | 0.00 | 0.00 | 0.00 | 91 | 1008.8 |
| 20260506115204 | 23 | 155 | 0.0 | 0.0 | 0.00 | 0.00 | 0.00 | 91 | 1008.8 |
| 20260506114704 | 23 | 155 | 0.0 | 0.0 | 0.00 | 0.00 | 0.00 | 91 | 1008.7 |
| 20260506114205 | 23 | 155 | 0.0 | 1.6 | 0.00 | 0.00 | 0.00 | 91 | 1008.6 |
| 20260506113704 | 23 | 155 | 0.0 | 1.6 | 0.00 | 0.00 | 0.00 | 91 | 1008.4 |
| 20260506113205 | 23 | 155 | 0.0 | 3.2 | 0.00 | 0.00 | 0.00 | 91 | 1008.5 |
| 20260506112704 | 23 | 155 | 0.0 | 3.2 | 0.00 | 0.00 | 0.00 | 91 | 1008.4 |
| 20260506111204 | 23 | 155 | 0.0 | 1.6 | 0.00 | 0.00 | 0.00 | 91 | 1008.0 |
| 20260506110704 | 23 | 155 | 0.0 | 3.2 | 0.00 | 0.00 | 0.00 | 91 | 1008.0 |
| 20260506110204 | 23 | 155 | 0.0 | 3.2 | 0.00 | 0.00 | 0.00 | 91 | 1007.9 |
| 20260506105204 | 23 | 155 | 0.0 | 1.6 | 0.00 | 0.00 | 0.00 | 91 | 1007.9 |
| 20260506104704 | 23 | 155 | 0.0 | 3.2 | 0.00 | 0.00 | 0.00 | 91 | 1007.9 |
| 20260506104204 | 23 | 155 | 1.6 | 3.2 | 0.00 | 0.00 | 0.00 | 91 | 1007.8 |
| 20260506103204 | 23 | 197 | 1.6 | 3.2 | 0.00 | 0.00 | 0.00 | 91 | 1007.9 |
| 20260506102704 | 23 | 197 | 1.6 | 3.2 | 0.00 | 0.00 | 0.00 | 91 | 1007.8 |
| 20260506102204 | 23 | 197 | 0.0 | 3.2 | 0.00 | 0.00 | 0.00 | 91 | 1007.7 |
| 20260506101704 | 23 | 197 | 3.2 | 4.8 | 0.00 | 0.00 | 0.00 | 91 | 1007.6 |
| 20260506101204 | 23 | 182 | 1.6 | 8.0 | 0.00 | 0.00 | 0.00 | 90 | 1007.6 |
| 20260506100704 | 23 | 201 | 1.6 | 4.8 | 0.00 | 0.00 | 0.00 | 90 | 1007.5 |
| 20260506100204 | 23 | 197 | 0.0 | 4.8 | 0.00 | 0.00 | 0.00 | 90 | 1007.5 |
| 20260506095704 | 23 | 190 | 1.6 | 8.0 | 0.00 | 0.00 | 0.00 | 90 | 1007.4 |
| 20260506095204 | 23 | 149 | 1.6 | 4.8 | 0.00 | 0.00 | 0.00 | 90 | 1007.3 |
| 20260506094704 | 23 | 197 | 3.2 | 9.7 | 0.00 | 0.00 | 0.00 | 90 | 1007.2 |
| 20260506094204 | 23 | 206 | 4.8 | 12.9 | 0.00 | 0.00 | 0.00 | 90 | 1007.2 |
| 20260506093704 | 23 | 171 | 3.2 | 4.8 | 0.00 | 0.00 | 0.00 | 90 | 1007.1 |
| 20260506092704 | 23 | 194 | 3.2 | 8.0 | 0.00 | 0.00 | 0.00 | 90 | 1007.3 |
| 20260506092203 | 23 | 198 | 3.2 | 4.8 | 0.00 | 0.00 | 0.00 | 90 | 1007.2 |
| 20260506091703 | 23 | 293 | 3.2 | 8.0 | 0.00 | 0.00 | 0.00 | 90 | 1007.3 |
| 20260506090704 | 23 | 157 | 1.6 | 4.8 | 0.00 | 0.00 | 0.00 | 90 | 1007.2 |
| 20260506090204 | 23 | 199 | 1.6 | 3.2 | 0.00 | 0.00 | 0.00 | 89 | 1007.1 |
| 20260506085704 | 23 | 182 | 0.0 | 4.8 | 0.00 | 0.00 | 0.00 | 90 | 1007.2 |
| 20260506085204 | 23 | 325 | 3.2 | 11.3 | 0.00 | 0.00 | 0.00 | 89 | 1007.0 |
| 20260506084704 | 23 | 170 | 4.8 | 9.7 | 0.00 | 0.00 | 0.00 | 89 | 1007.0 |
| 20260506084204 | 23 | 160 | 1.6 | 4.8 | 0.00 | 0.00 | 0.00 | 89 | 1007.0 |
| 20260506083704 | 23 | 164 | 3.2 | 4.8 | 0.00 | 0.00 | 0.00 | 89 | 1007.2 |
| 20260506083204 | 23 | 200 | 1.6 | 11.3 | 0.00 | 0.00 | 0.00 | 89 | 1007.1 |
| 20260506082705 | 23 | 214 | 1.6 | 4.8 | 0.00 | 0.00 | 0.00 | 88 | 1006.9 |
| 20260506082204 | 23 | 183 | 1.6 | 4.8 | 0.00 | 0.00 | 0.00 | 88 | 1007.0 |
| 20260506081704 | 23 | 198 | 3.2 | 12.9 | 0.00 | 0.00 | 0.00 | 88 | 1006.8 |
| 20260506080704 | 23 | 155 | 1.6 | 4.8 | 0.00 | 0.00 | 0.00 | 88 | 1006.9 |
| 20260506080204 | 23 | 159 | 4.8 | 14.5 | 0.00 | 0.00 | 0.00 | 88 | 1006.7 |
| 20260506073204 | 24 | 151 | 4.8 | 12.9 | 0.00 | 0.00 | 0.00 | 87 | 1006.9 |
| 20260506072704 | 24 | 159 | 8.0 | 25.7 | 0.00 | 0.00 | 0.00 | 87 | 1006.8 |
| 20260506072204 | 24 | 144 | 4.8 | 19.3 | 0.00 | 0.00 | 0.00 | 86 | 1006.8 |
| 20260506071704 | 24 | 159 | 8.0 | 14.5 | 0.00 | 0.00 | 0.00 | 86 | 1007.0 |
| 20260506071204 | 24 | 207 | 1.6 | 8.0 | 0.00 | 0.00 | 0.00 | 86 | 1007.3 |
| 20260506070704 | 24 | 187 | 3.2 | 12.9 | 0.00 | 0.00 | 0.00 | 86 | 1007.3 |
| 20260506070204 | 24 | 160 | 3.2 | 11.3 | 0.00 | 0.00 | 0.00 | 86 | 1007.5 |
| 20260506061703 | 24 | 195 | 4.8 | 8.0 | 0.00 | 0.00 | 0.00 | 87 | 1007.7 |
| 20260506061204 | 24 | 188 | 3.2 | 11.3 | 0.00 | 0.00 | 0.00 | 87 | 1007.8 |
| 20260506060704 | 24 | 184 | 4.8 | 16.1 | 0.00 | 0.00 | 0.00 | 87 | 1007.8 |
| 20260506060203 | 24 | 215 | 3.2 | 12.9 | 0.00 | 0.00 | 0.00 | 87 | 1007.7 |
| 20260506051204 | 24 | 184 | 3.2 | 14.5 | 0.00 | 0.00 | 0.00 | 88 | 1007.4 |
| 20260506050704 | 24 | 156 | 3.2 | 14.5 | 0.00 | 0.00 | 0.00 | 88 | 1007.4 |
| 20260506050204 | 24 | 167 | 1.6 | 4.8 | 0.00 | 0.00 | 0.00 | 88 | 1007.3 |
| 20260506044703 | 24 | 139 | 1.6 | 9.7 | 0.00 | 0.00 | 0.00 | 88 | 1007.0 |
| 20260506043704 | 24 | 158 | 4.8 | 14.5 | 0.00 | 0.00 | 0.00 | 88 | 1006.9 |
| 20260506043203 | 24 | 159 | 8.0 | 19.3 | 0.00 | 0.00 | 0.00 | 88 | 1006.8 |
| 20260506042704 | 24 | 152 | 6.4 | 19.3 | 0.00 | 0.00 | 0.00 | 88 | 1006.6 |
| 20260506042204 | 24 | 153 | 11.3 | 19.3 | 0.00 | 0.00 | 0.00 | 88 | 1006.6 |
| 20260506041704 | 24 | 209 | 4.8 | 11.3 | 0.00 | 0.00 | 0.00 | 88 | 1006.7 |
| 20260506041203 | 24 | 126 | 4.8 | 14.5 | 0.00 | 0.00 | 0.00 | 88 | 1006.8 |
| 20260506040704 | 24 | 199 | 6.4 | 14.5 | 0.00 | 0.00 | 0.00 | 88 | 1006.7 |
| 20260506040205 | 24 | 172 | 4.8 | 8.0 | 0.00 | 0.00 | 0.00 | 87 | 1006.8 |
| 20260506035704 | 24 | 136 | 3.2 | 9.7 | 0.00 | 0.00 | 0.00 | 87 | 1006.9 |
| 20260506035203 | 24 | 148 | 3.2 | 11.3 | 0.00 | 0.00 | 0.00 | 87 | 1006.9 |
| 20260506034703 | 24 | 150 | 4.8 | 12.9 | 0.00 | 0.00 | 0.00 | 87 | 1006.8 |
| 20260506033204 | 25 | 153 | 4.8 | 12.9 | 0.00 | 0.00 | 0.00 | 87 | 1006.8 |
| 20260506032704 | 25 | 155 | 8.0 | 12.9 | 0.00 | 0.00 | 0.00 | 87 | 1006.8 |
| 20260506032204 | 25 | 160 | 4.8 | 9.7 | 0.00 | 0.00 | 0.00 | 86 | 1006.9 |
| 20260506030704 | 25 | 137 | 1.6 | 11.3 | 0.00 | 0.00 | 0.00 | 86 | 1006.9 |
| 20260506030204 | 25 | 158 | 4.8 | 12.9 | 0.00 | 0.00 | 0.00 | 86 | 1006.9 |
| 20260506025204 | 25 | 234 | 1.6 | 4.8 | 0.00 | 0.00 | 0.00 | 85 | 1006.6 |
| 20260506024705 | 25 | 154 | 3.2 | 9.7 | 0.00 | 0.00 | 0.00 | 85 | 1006.5 |
| 20260506024204 | 25 | 147 | 4.8 | 19.3 | 0.00 | 0.00 | 0.00 | 85 | 1006.3 |
| 20260506023704 | 25 | 173 | 4.8 | 11.3 | 0.00 | 0.00 | 0.00 | 84 | 1006.3 |
| 20260506023204 | 25 | 144 | 6.4 | 11.3 | 0.00 | 0.00 | 0.00 | 84 | 1006.2 |
| 20260506021704 | 25 | 163 | 3.2 | 9.7 | 0.00 | 0.00 | 0.00 | 83 | 1006.1 |
| 20260506021203 | 25 | 151 | 3.2 | 11.3 | 0.00 | 0.00 | 0.00 | 82 | 1006.1 |
| 20260506020705 | 25 | 150 | 4.8 | 12.9 | 0.00 | 0.00 | 0.00 | 82 | 1006.0 |
| 20260506020204 | 26 | 155 | 4.8 | 9.7 | 0.00 | 0.00 | 0.00 | 82 | 1006.1 |
| 20260506015204 | 26 | 158 | 3.2 | 9.7 | 0.00 | 0.00 | 0.00 | 81 | 1006.0 |
| 20260506014704 | 26 | 168 | 3.2 | 9.7 | 0.00 | 0.00 | 0.00 | 81 | 1006.0 |
| 20260506013703 | 26 | 244 | 3.2 | 11.3 | 0.00 | 0.00 | 0.00 | 81 | 1005.9 |
| 20260506013204 | 26 | 187 | 1.6 | 4.8 | 0.00 | 0.00 | 0.00 | 80 | 1005.9 |
| 20260506012204 | 26 | 203 | 1.6 | 4.8 | 0.00 | 0.00 | 0.00 | 80 | 1005.5 |
| 20260506011704 | 26 | 201 | 3.2 | 11.3 | 0.00 | 0.00 | 0.00 | 80 | 1005.5 |
| 20260506011205 | 26 | 136 | 3.2 | 12.9 | 0.00 | 0.00 | 0.00 | 79 | 1005.1 |
| 20260506010204 | 26 | 179 | 4.8 | 12.9 | 0.00 | 0.00 | 0.00 | 79 | 1004.9 |
| 20260506005704 | 26 | 185 | 4.8 | 11.3 | 0.00 | 0.00 | 0.00 | 79 | 1004.9 |
| 20260506005204 | 26 | 144 | 4.8 | 11.3 | 0.00 | 0.00 | 0.00 | 78 | 1005.0 |
| 20260506004704 | 26 | 174 | 3.2 | 11.3 | 0.00 | 0.00 | 0.00 | 78 | 1004.9 |
| 20260506004203 | 27 | 162 | 6.4 | 12.9 | 0.00 | 0.00 | 0.00 | 78 | 1005.0 |
| 20260506003703 | 27 | 165 | 6.4 | 19.3 | 0.00 | 0.00 | 0.00 | 77 | 1005.0 |
| 20260506003203 | 27 | 147 | 3.2 | 8.0 | 0.00 | 0.00 | 0.00 | 77 | 1005.1 |
| 20260506002703 | 27 | 146 | 3.2 | 8.0 | 0.00 | 0.00 | 0.00 | 77 | 1004.9 |
| 20260506002204 | 27 | 197 | 1.6 | 11.3 | 0.00 | 0.00 | 0.00 | 76 | 1004.9 |
| 20260506001704 | 27 | 218 | 3.2 | 11.3 | 0.00 | 0.00 | 0.00 | 76 | 1004.8 |
| 20260506001205 | 27 | 163 | 4.8 | 11.3 | 0.00 | 0.00 | 0.00 | 76 | 1004.7 |
| 20260506000704 | 27 | 194 | 6.4 | 16.1 | 0.00 | 0.00 | 0.00 | 75 | 1004.7 |
| 20260506000205 | 27 | 177 | 4.8 | 14.5 | 0.00 | 0.00 | 0.00 | 75 | 1004.7 |
| 20260505235704 | 27 | 194 | 4.8 | 19.3 | 0.00 | 0.00 | 0.00 | 75 | 1004.9 |
| 20260505235204 | 27 | 151 | 1.6 | 8.0 | 0.00 | 0.00 | 0.00 | 74 | 1004.8 |
| 20260505234704 | 27 | 148 | 4.8 | 19.3 | 0.00 | 0.00 | 0.00 | 74 | 1004.8 |
| 20260505234204 | 28 | 187 | 3.2 | 11.3 | 0.00 | 0.00 | 0.00 | 74 | 1004.7 |
| 20260505233704 | 28 | 156 | 4.8 | 11.3 | 0.00 | 0.00 | 0.00 | 74 | 1004.6 |
| 20260505233204 | 28 | 145 | 4.8 | 12.9 | 0.00 | 0.00 | 0.00 | 74 | 1004.7 |
| 20260505232704 | 28 | 167 | 1.6 | 14.5 | 0.00 | 0.00 | 0.00 | 73 | 1004.7 |
| 20260505231704 | 28 | 190 | 8.0 | 19.3 | 0.00 | 0.00 | 0.00 | 73 | 1004.6 |
| 20260505231204 | 28 | 150 | 9.7 | 25.7 | 0.00 | 0.00 | 0.00 | 73 | 1004.5 |
| 20260505230705 | 28 | 141 | 8.0 | 19.3 | 0.00 | 0.00 | 0.00 | 71 | 1004.4 |
| 20260505230204 | 28 | 152 | 12.9 | 32.2 | 0.00 | 0.00 | 0.00 | 70 | 1004.5 |
| 20260505225705 | 28 | 185 | 4.8 | 9.7 | 0.00 | 0.00 | 0.00 | 71 | 1004.5 |
| 20260505224704 | 28 | 178 | 4.8 | 8.0 | 0.00 | 0.00 | 0.00 | 72 | 1004.6 |
| 20260505223704 | 28 | 165 | 6.4 | 19.3 | 0.00 | 0.00 | 0.00 | 73 | 1004.7 |
| 20260505223203 | 28 | 197 | 3.2 | 8.0 | 0.00 | 0.00 | 0.00 | 72 | 1004.6 |
| 20260505222704 | 28 | 139 | 4.8 | 19.3 | 0.00 | 0.00 | 0.00 | 72 | 1004.7 |
| 20260505222204 | 28 | 250 | 3.2 | 8.0 | 0.00 | 0.00 | 0.00 | 72 | 1004.8 |
| 20260505221703 | 28 | 269 | 1.6 | 12.9 | 0.00 | 0.00 | 0.00 | 72 | 1004.8 |
| 20260505221204 | 28 | 185 | 1.6 | 8.0 | 0.00 | 0.00 | 0.00 | 72 | 1004.7 |
| 20260505220704 | 28 | 190 | 4.8 | 19.3 | 0.00 | 0.00 | 0.00 | 72 | 1004.9 |
| 20260505220203 | 28 | 191 | 3.2 | 11.3 | 0.00 | 0.00 | 0.00 | 72 | 1004.9 |
| 20260505215704 | 28 | 248 | 4.8 | 9.7 | 0.00 | 0.00 | 0.00 | 72 | 1004.9 |
| 20260505215203 | 28 | 135 | 6.4 | 12.9 | 0.00 | 0.00 | 0.00 | 72 | 1005.0 |
| 20260505214703 | 28 | 205 | 3.2 | 11.3 | 0.00 | 0.00 | 0.00 | 73 | 1004.9 |
| 20260505214205 | 28 | 93 | 1.6 | 12.9 | 0.00 | 0.00 | 0.00 | 73 | 1004.9 |
| 20260505213704 | 28 | 140 | 6.4 | 12.9 | 0.00 | 0.00 | 0.00 | 74 | 1005.0 |
| 20260505212204 | 28 | 200 | 6.4 | 19.3 | 0.00 | 0.00 | 0.00 | 72 | 1005.0 |
| 20260505211704 | 28 | 208 | 8.0 | 20.9 | 0.00 | 0.00 | 0.00 | 71 | 1005.2 |
| 20260505211204 | 28 | 151 | 4.8 | 14.5 | 0.00 | 0.00 | 0.00 | 72 | 1005.2 |
| 20260505205204 | 28 | 202 | 6.4 | 16.1 | 0.00 | 0.00 | 0.00 | 71 | 1005.1 |
| 20260505204704 | 28 | 145 | 6.4 | 12.9 | 0.00 | 0.00 | 0.00 | 70 | 1005.1 |
| 20260505204204 | 28 | 138 | 4.8 | 16.1 | 0.00 | 0.00 | 0.00 | 71 | 1005.2 |
| 20260505203704 | 28 | 191 | 4.8 | 12.9 | 0.00 | 0.00 | 0.00 | 70 | 1005.2 |
| 20260505202703 | 28 | 150 | 8.0 | 14.5 | 0.00 | 0.00 | 0.00 | 70 | 1005.3 |
| 20260505202204 | 28 | 187 | 4.8 | 16.1 | 0.00 | 0.00 | 0.00 | 72 | 1005.4 |
| 20260505201704 | 28 | 187 | 8.0 | 16.1 | 0.00 | 0.00 | 0.00 | 70 | 1005.5 |
| 20260505201204 | 28 | 197 | 6.4 | 12.9 | 0.00 | 0.00 | 0.00 | 71 | 1005.6 |
| 20260505200704 | 28 | 202 | 8.0 | 24.1 | 0.00 | 0.00 | 0.00 | 72 | 1005.5 |
| 20260505195204 | 28 | 171 | 3.2 | 11.3 | 0.00 | 0.00 | 0.00 | 72 | 1005.9 |
| 20260505194703 | 28 | 216 | 4.8 | 9.7 | 0.00 | 0.00 | 0.00 | 72 | 1005.9 |
| 20260505194205 | 28 | 199 | 4.8 | 19.3 | 0.00 | 0.00 | 0.00 | 72 | 1006.0 |
| 20260505193704 | 27 | 196 | 4.8 | 16.1 | 0.00 | 0.00 | 0.00 | 71 | 1006.0 |
| 20260505193204 | 27 | 190 | 4.8 | 12.9 | 0.00 | 0.00 | 0.00 | 72 | 1006.1 |
| 20260505192704 | 27 | 184 | 4.8 | 12.9 | 0.00 | 0.00 | 0.00 | 71 | 1006.1 |
| 20260505192205 | 27 | 222 | 4.8 | 11.3 | 0.00 | 0.00 | 0.00 | 71 | 1006.1 |
| 20260505191704 | 27 | 193 | 4.8 | 20.9 | 0.00 | 0.00 | 0.00 | 71 | 1006.2 |
| 20260505190704 | 27 | 134 | 4.8 | 12.9 | 0.00 | 0.00 | 0.00 | 72 | 1006.3 |
| 20260505190204 | 27 | 237 | 4.8 | 14.5 | 0.00 | 0.00 | 0.00 | 72 | 1006.2 |
| 20260505185704 | 27 | 241 | 4.8 | 19.3 | 0.00 | 0.00 | 0.00 | 73 | 1006.3 |
| 20260505184704 | 27 | 184 | 4.8 | 14.5 | 0.00 | 0.00 | 0.00 | 73 | 1006.3 |
| 20260505184204 | 27 | 207 | 6.4 | 14.5 | 0.00 | 0.00 | 0.00 | 74 | 1006.3 |
| 20260505183704 | 27 | 173 | 3.2 | 14.5 | 0.00 | 0.00 | 0.00 | 74 | 1006.3 |
| 20260505183204 | 27 | 200 | 4.8 | 12.9 | 0.00 | 0.00 | 0.00 | 75 | 1006.2 |
| 20260505182203 | 27 | 179 | 8.0 | 20.9 | 0.00 | 0.00 | 0.00 | 74 | 1006.3 |
| 20260505181704 | 27 | 268 | 4.8 | 11.3 | 0.00 | 0.00 | 0.00 | 74 | 1006.2 |
| 20260505181204 | 27 | 135 | 4.8 | 19.3 | 0.00 | 0.00 | 0.00 | 76 | 1006.2 |
| 20260505180204 | 26 | 199 | 8.0 | 20.9 | 0.00 | 0.00 | 0.00 | 75 | 1006.4 |
| 20260505175704 | 26 | 191 | 8.0 | 19.3 | 0.00 | 0.00 | 0.00 | 75 | 1006.5 |
| 20260505175204 | 26 | 187 | 4.8 | 11.3 | 0.00 | 0.00 | 0.00 | 76 | 1006.7 |
| 20260505174704 | 26 | 203 | 1.6 | 8.0 | 0.00 | 0.00 | 0.00 | 78 | 1006.7 |
| 20260505174204 | 26 | 199 | 3.2 | 12.9 | 0.00 | 0.00 | 0.00 | 77 | 1006.7 |
| 20260505173204 | 25 | 146 | 6.4 | 19.3 | 0.00 | 0.00 | 0.00 | 77 | 1006.7 |
| 20260505172704 | 25 | 116 | 3.2 | 11.3 | 0.00 | 0.00 | 0.00 | 78 | 1006.8 |
| 20260505172204 | 25 | 206 | 4.8 | 12.9 | 0.00 | 0.00 | 0.00 | 79 | 1006.8 |
| 20260505171704 | 25 | 156 | 6.4 | 14.5 | 0.00 | 0.00 | 0.00 | 79 | 1006.8 |
| 20260505171204 | 25 | 231 | 4.8 | 19.3 | 0.00 | 0.00 | 0.00 | 80 | 1007.0 |
| 20260505170704 | 25 | 171 | 3.2 | 9.7 | 0.00 | 0.00 | 0.00 | 80 | 1007.0 |
| 20260505170204 | 25 | 193 | 6.4 | 12.9 | 0.00 | 0.00 | 0.00 | 80 | 1007.1 |
| 20260505164704 | 24 | 158 | 4.8 | 27.4 | 0.00 | 0.00 | 0.00 | 80 | 1007.0 |
| 20260505164204 | 24 | 156 | 4.8 | 12.9 | 0.00 | 0.00 | 0.00 | 81 | 1007.2 |
| 20260505163204 | 24 | 344 | 3.2 | 12.9 | 0.00 | 0.00 | 0.00 | 82 | 1007.2 |
| 20260505162704 | 24 | 184 | 8.0 | 12.9 | 0.00 | 0.00 | 0.00 | 82 | 1007.2 |
| 20260505162203 | 23 | 218 | 3.2 | 8.0 | 0.00 | 0.00 | 0.00 | 82 | 1007.2 |
| 20260505161704 | 23 | 192 | 4.8 | 20.9 | 0.00 | 0.00 | 0.00 | 82 | 1007.2 |
| 20260505161204 | 23 | 202 | 3.2 | 11.3 | 0.00 | 0.00 | 0.00 | 82 | 1007.2 |
| 20260505160704 | 23 | 211 | 4.8 | 12.9 | 0.00 | 0.00 | 0.00 | 82 | 1007.2 |
| 20260505160204 | 23 | 207 | 4.8 | 9.7 | 0.00 | 0.00 | 0.00 | 83 | 1007.2 |
| 20260505153204 | 23 | 200 | 4.8 | 4.8 | 0.00 | 0.00 | 0.00 | 84 | 1007.1 |
| 20260505152703 | 23 | 250 | 3.2 | 12.9 | 0.00 | 0.00 | 0.00 | 85 | 1007.3 |
| 20260505151704 | 22 | 221 | 3.2 | 12.9 | 0.00 | 0.00 | 0.00 | 86 | 1007.4 |
| 20260505151204 | 22 | 178 | 3.2 | 4.8 | 0.00 | 0.00 | 0.00 | 86 | 1007.2 |
| 20260505150704 | 22 | 277 | 1.6 | 14.5 | 0.00 | 0.00 | 0.00 | 86 | 1007.2 |
| 20260505150204 | 22 | 145 | 6.4 | 12.9 | 0.00 | 0.00 | 0.00 | 86 | 1007.2 |